createdAt,value
2023-01-13T00:01:42.298Z,94722.72
2023-01-13T00:04:08.723Z,94718.97
2023-01-13T00:06:35.119Z,94720.75
2023-01-13T00:09:01.528Z,94722.25
2023-01-13T00:11:27.955Z,94718.47
2023-01-13T00:13:54.406Z,94711.72
2023-01-13T00:16:20.937Z,94726.53
2023-01-13T00:18:47.388Z,94722.91
2023-01-13T00:21:13.864Z,94700.41
2023-01-13T00:23:40.266Z,94689.22
2023-01-13T00:26:06.625Z,94690.88
2023-01-13T00:28:33.032Z,94693.84
2023-01-13T00:30:59.469Z,94693.34
2023-01-13T00:33:25.874Z,94698.75
2023-01-13T00:35:52.263Z,94693.00
2023-01-13T00:38:18.631Z,94696.59
2023-01-13T00:40:45.040Z,94705.34
2023-01-13T00:43:11.428Z,94702.56
2023-01-13T00:45:37.861Z,94703.16
2023-01-13T00:48:04.236Z,94700.22
2023-01-13T00:50:30.639Z,94696.59
2023-01-13T00:52:57.073Z,94700.72
2023-01-13T00:55:23.472Z,94705.69
2023-01-13T00:57:49.862Z,94690.19
2023-01-13T01:00:16.275Z,94690.72
2023-01-13T01:02:42.747Z,94695.84
2023-01-13T01:05:09.152Z,94689.91
2023-01-13T01:07:35.531Z,94686.16
2023-01-13T01:10:01.932Z,94685.34
2023-01-13T01:12:28.343Z,94685.03
2023-01-13T01:14:54.711Z,94691.09
2023-01-13T01:17:21.548Z,94675.84
2023-01-13T01:19:47.958Z,94696.88
2023-01-13T01:22:14.343Z,94691.47
2023-01-13T01:24:40.800Z,94692.44
2023-01-13T01:27:07.196Z,94694.09
2023-01-13T01:29:33.601Z,94693.78
2023-01-13T01:31:59.981Z,94680.63
2023-01-13T01:34:26.368Z,94691.28
2023-01-13T01:36:52.785Z,94698.53
2023-01-13T01:39:19.168Z,94696.75
2023-01-13T01:41:45.555Z,94702.44
2023-01-13T01:44:11.957Z,94697.50
2023-01-13T01:46:38.443Z,94697.00
2023-01-13T01:49:04.825Z,94693.34
2023-01-13T01:51:31.212Z,94698.75
2023-01-13T01:53:57.609Z,94696.59
2023-01-13T01:56:23.988Z,94692.47
2023-01-13T01:58:50.441Z,94695.28
2023-01-13T02:01:16.961Z,94687.69
2023-01-13T02:03:43.423Z,94687.53
2023-01-13T02:06:09.827Z,94691.28
2023-01-13T02:08:36.251Z,94692.28
2023-01-13T02:11:02.646Z,94691.00
2023-01-13T02:13:29.067Z,94693.09
2023-01-13T02:15:55.475Z,94688.66
2023-01-13T02:18:21.847Z,94678.13
2023-01-13T02:20:48.267Z,94684.41
2023-01-13T02:23:14.686Z,94673.41
2023-01-13T02:25:41.062Z,94675.16
2023-01-13T02:28:07.501Z,94678.72
2023-01-13T02:30:34.014Z,94672.50
2023-01-13T02:33:00.412Z,94663.56
2023-01-13T02:35:26.813Z,94658.31
2023-01-13T02:37:53.283Z,94662.38
2023-01-13T02:40:19.667Z,94663.50
2023-01-13T02:42:46.085Z,94657.16
2023-01-13T02:45:12.450Z,94656.44
2023-01-13T02:47:38.821Z,94661.56
2023-01-13T02:50:05.266Z,94659.13
2023-01-13T02:52:31.676Z,94655.78
2023-01-13T02:54:58.102Z,94646.75
2023-01-13T02:57:24.528Z,94641.34
2023-01-13T02:59:50.953Z,94636.38
2023-01-13T03:02:17.796Z,94625.22
2023-01-13T03:04:48.678Z,94615.66
2023-01-13T03:07:15.070Z,94625.50
2023-01-13T03:09:41.440Z,94627.97
2023-01-13T03:12:07.849Z,94627.28
2023-01-13T03:14:34.225Z,94619.06
2023-01-13T03:17:00.612Z,94622.38
2023-01-13T03:19:27.138Z,94621.88
2023-01-13T03:21:53.577Z,94618.56
2023-01-13T03:24:19.991Z,94607.91
2023-01-13T03:26:46.396Z,94612.47
2023-01-13T03:29:12.986Z,94610.31
2023-01-13T03:31:39.400Z,94606.38
2023-01-13T03:34:05.806Z,94600.28
2023-01-13T03:36:32.298Z,94603.41
2023-01-13T03:38:58.740Z,94613.09
2023-01-13T03:41:25.171Z,94618.31
2023-01-13T03:43:51.629Z,94625.66
2023-01-13T03:46:18.127Z,94619.59
2023-01-13T03:48:44.631Z,94632.94
2023-01-13T03:51:11.081Z,94623.63
2023-01-13T03:53:37.590Z,94641.78
2023-01-13T03:56:04.097Z,94635.22
2023-01-13T03:58:30.544Z,94640.78
2023-01-13T04:00:57.091Z,94627.47
2023-01-13T04:03:23.614Z,94629.44
2023-01-13T04:05:50.034Z,94628.63
2023-01-13T04:08:16.510Z,94623.88
2023-01-13T04:10:42.938Z,94625.81
2023-01-13T04:13:09.354Z,94628.44
2023-01-13T04:15:35.826Z,94611.56
2023-01-13T04:18:02.320Z,94619.44
2023-01-13T04:20:28.763Z,94605.47
2023-01-13T04:22:55.171Z,94620.13
2023-01-13T04:25:21.609Z,94613.34
2023-01-13T04:27:47.982Z,94604.03
2023-01-13T04:30:14.403Z,94613.97
2023-01-13T04:32:41.085Z,94610.88
2023-01-13T04:35:07.497Z,94618.72
2023-01-13T04:37:33.947Z,94624.13
2023-01-13T04:40:00.361Z,94607.22
2023-01-13T04:42:26.822Z,94608.34
2023-01-13T04:44:53.252Z,94613.59
2023-01-13T04:47:19.703Z,94602.28
2023-01-13T04:49:46.137Z,94601.22
2023-01-13T04:52:12.578Z,94601.09
2023-01-13T04:54:39.036Z,94598.78
2023-01-13T04:57:05.594Z,94610.19
2023-01-13T04:59:33.961Z,94612.28
2023-01-13T05:02:01.022Z,94595.72
2023-01-13T05:04:28.603Z,94615.44
2023-01-13T05:06:55.057Z,94595.56
2023-01-13T05:09:28.932Z,94591.91
2023-01-13T05:11:55.337Z,94603.09
2023-01-13T05:14:23.996Z,94602.41
2023-01-13T05:16:52.797Z,94622.91
2023-01-13T05:19:22.277Z,94614.47
2023-01-13T05:21:49.069Z,94598.56
2023-01-13T05:24:17.567Z,94612.22
2023-01-13T05:26:48.467Z,94627.59
2023-01-13T05:29:15.175Z,94611.50
2023-01-13T05:31:42.667Z,94605.13
2023-01-13T05:34:09.101Z,94634.59
2023-01-13T05:36:36.564Z,94609.84
2023-01-13T05:39:02.968Z,94614.44
2023-01-13T05:41:32.143Z,94616.44
2023-01-13T05:43:58.541Z,94606.00
2023-01-13T05:46:25.639Z,94608.63
2023-01-13T05:48:52.071Z,94606.84
2023-01-13T05:51:19.037Z,94598.31
2023-01-13T05:53:45.520Z,94605.50
2023-01-13T05:56:12.503Z,94602.41
2023-01-13T05:58:38.894Z,94614.81
2023-01-13T06:01:05.962Z,94596.09
2023-01-13T06:03:35.019Z,94603.78
2023-01-13T06:06:01.589Z,94609.56
2023-01-13T06:08:30.850Z,94613.47
2023-01-13T06:10:58.661Z,94615.53
2023-01-13T06:13:25.489Z,94605.34
2023-01-13T06:15:52.099Z,94600.94
2023-01-13T06:18:18.836Z,94605.03
2023-01-13T06:20:45.331Z,94610.59
2023-01-13T06:23:13.812Z,94634.50
2023-01-13T06:25:40.226Z,94630.41
2023-01-13T06:30:47.008Z,94630.41
2023-01-13T06:33:13.451Z,94614.41
2023-01-13T06:35:40.796Z,94623.72
2023-01-13T06:38:07.251Z,94622.75
2023-01-13T06:40:33.732Z,94630.91
2023-01-13T06:43:00.165Z,94612.25
2023-01-13T06:45:26.538Z,94629.09
2023-01-13T06:47:52.952Z,94631.44
2023-01-13T06:50:19.402Z,94628.97
2023-01-13T06:52:45.856Z,94642.75
2023-01-13T06:55:12.268Z,94631.97
2023-01-13T06:57:38.670Z,94636.00
2023-01-13T07:00:05.105Z,94628.97
2023-01-13T07:02:31.607Z,94634.97
2023-01-13T07:04:58.076Z,94648.84
2023-01-13T07:07:24.491Z,94636.25
2023-01-13T07:09:50.956Z,94642.19
2023-01-13T07:12:17.404Z,94652.25
2023-01-13T07:14:43.817Z,94651.47
2023-01-13T07:17:10.261Z,94644.94
2023-01-13T07:19:36.717Z,94654.09
2023-01-13T07:22:03.210Z,94655.44
2023-01-13T07:24:29.614Z,94648.63
2023-01-13T07:26:56.095Z,94662.34
2023-01-13T07:29:22.564Z,94667.22
2023-01-13T07:31:50.088Z,94669.22
2023-01-13T07:34:16.852Z,94665.19
2023-01-13T07:36:43.419Z,94693.00
2023-01-13T07:39:10.146Z,94679.72
2023-01-13T07:41:36.650Z,94670.06
2023-01-13T07:44:03.079Z,94688.28
2023-01-13T07:46:29.491Z,94694.94
2023-01-13T07:48:55.947Z,94685.78
2023-01-13T07:51:22.367Z,94688.66
2023-01-13T07:53:48.798Z,94664.66
2023-01-13T07:56:15.370Z,94666.09
2023-01-13T07:58:41.786Z,94664.22
2023-01-13T08:01:08.270Z,94672.91
2023-01-13T08:03:34.848Z,94675.78
2023-01-13T08:06:01.266Z,94677.44
2023-01-13T08:08:27.684Z,94677.66
2023-01-13T08:10:54.124Z,94691.06
2023-01-13T08:13:20.702Z,94670.75
2023-01-13T08:15:47.088Z,94687.09
2023-01-13T08:18:13.519Z,94712.28
2023-01-13T08:20:39.963Z,94696.28
2023-01-13T08:23:07.522Z,94706.56
2023-01-13T08:25:34.061Z,94696.09
2023-01-13T08:28:00.502Z,94700.06
2023-01-13T08:30:26.974Z,94692.03
2023-01-13T08:32:53.477Z,94690.22
2023-01-13T08:35:20.395Z,94692.03
2023-01-13T08:37:46.853Z,94695.25
2023-01-13T08:40:13.330Z,94700.13
2023-01-13T08:42:39.822Z,94715.88
2023-01-13T08:45:06.247Z,94716.44
2023-01-13T08:47:32.690Z,94715.00
2023-01-13T08:49:59.127Z,94712.25
2023-01-13T08:52:25.747Z,94722.44
2023-01-13T08:54:52.139Z,94717.44
2023-01-13T08:57:18.619Z,94707.81
2023-01-13T08:59:45.130Z,94715.78
2023-01-13T09:02:11.747Z,94718.78
2023-01-13T09:04:38.329Z,94715.19
2023-01-13T09:07:04.829Z,94729.13
2023-01-13T09:09:31.284Z,94756.59
2023-01-13T09:11:57.693Z,94747.31
2023-01-13T09:14:24.142Z,94738.38
2023-01-13T09:16:50.580Z,94754.06
2023-01-13T09:19:16.992Z,94746.41
2023-01-13T09:21:43.395Z,94743.50
2023-01-13T09:24:09.821Z,94744.16
2023-01-13T09:26:36.293Z,94763.22
2023-01-13T09:29:02.732Z,94750.56
2023-01-13T09:31:29.191Z,94763.47
2023-01-13T09:33:55.663Z,94761.81
2023-01-13T09:36:22.047Z,94777.66
2023-01-13T09:38:48.491Z,94782.47
2023-01-13T09:41:14.921Z,94772.69
2023-01-13T09:43:41.321Z,94778.66
2023-01-13T09:46:07.762Z,94775.25
2023-01-13T09:48:34.190Z,94781.56
2023-01-13T09:51:00.904Z,94779.38
2023-01-13T09:53:27.466Z,94794.91
2023-01-13T09:55:53.907Z,94783.31
2023-01-13T09:58:20.347Z,94798.56
2023-01-13T10:00:46.833Z,94800.91
2023-01-13T10:03:13.245Z,94806.75
2023-01-13T10:05:39.728Z,94808.69
2023-01-13T10:08:06.220Z,94809.53
2023-01-13T10:10:32.913Z,94794.28
2023-01-13T10:12:59.447Z,94802.59
2023-01-13T10:15:26.148Z,94804.06
2023-01-13T10:17:52.562Z,94807.13
2023-01-13T10:20:18.950Z,94804.81
2023-01-13T10:22:45.361Z,94812.22
2023-01-13T10:25:11.844Z,94803.09
2023-01-13T10:27:38.240Z,94807.53
2023-01-13T10:30:04.762Z,94804.44
2023-01-13T10:32:31.191Z,94810.66
2023-01-13T10:34:57.680Z,94795.22
2023-01-13T10:37:24.119Z,94798.47
2023-01-13T10:39:50.531Z,94783.50
2023-01-13T10:42:16.939Z,94799.03
2023-01-13T10:44:43.354Z,94773.22
2023-01-13T10:47:09.749Z,94793.59
2023-01-13T10:49:36.190Z,94809.06
2023-01-13T10:52:02.631Z,94798.06
2023-01-13T10:54:29.101Z,94789.13
2023-01-13T10:56:55.541Z,94791.00
2023-01-13T10:59:21.965Z,94780.75
2023-01-13T11:01:48.506Z,94798.28
2023-01-13T11:04:15.107Z,94785.00
2023-01-13T11:06:41.557Z,94797.00
2023-01-13T11:09:08.298Z,94777.25
2023-01-13T11:11:35.941Z,94785.06
2023-01-13T11:14:03.489Z,94796.88
2023-01-13T11:16:29.968Z,94790.78
2023-01-13T11:18:56.441Z,94789.13
2023-01-13T11:21:22.990Z,94794.16
2023-01-13T11:23:49.470Z,94802.97
2023-01-13T11:26:15.933Z,94780.13
2023-01-13T11:28:42.347Z,94792.81
2023-01-13T11:31:08.792Z,94790.56
2023-01-13T11:33:35.255Z,94784.28
2023-01-13T11:36:01.628Z,94784.09
2023-01-13T11:38:28.143Z,94794.78
2023-01-13T11:40:54.542Z,94803.28
2023-01-13T11:43:22.533Z,94817.03
2023-01-13T11:45:48.985Z,94837.47
2023-01-13T11:48:15.536Z,94828.75
2023-01-13T11:50:42.069Z,94827.16
2023-01-13T11:53:08.715Z,94829.78
2023-01-13T11:55:37.616Z,94834.00
2023-01-13T11:58:04.118Z,94831.28
2023-01-13T12:00:31.225Z,94831.38
2023-01-13T12:02:59.630Z,94819.06
2023-01-13T12:05:26.519Z,94824.00
2023-01-13T12:07:52.956Z,94816.41
2023-01-13T12:10:19.365Z,94820.00
2023-01-13T12:12:45.953Z,94815.06
2023-01-13T12:15:12.424Z,94824.41
2023-01-13T12:17:38.833Z,94820.13
2023-01-13T12:20:05.282Z,94830.88
2023-01-13T12:22:32.289Z,94813.19
2023-01-13T12:24:58.868Z,94811.75
2023-01-13T12:27:25.510Z,94806.63
2023-01-13T12:29:51.946Z,94806.41
2023-01-13T12:32:18.402Z,94804.84
2023-01-13T12:34:44.819Z,94805.66
2023-01-13T12:37:11.288Z,94802.19
2023-01-13T12:39:37.906Z,94801.44
2023-01-13T12:42:04.319Z,94799.25
2023-01-13T12:44:30.759Z,94808.16
2023-01-13T12:46:57.140Z,94796.84
2023-01-13T12:49:23.576Z,94804.47
2023-01-13T12:51:49.977Z,94797.69
2023-01-13T12:54:16.360Z,94803.00
2023-01-13T12:56:42.763Z,94808.00
2023-01-13T12:59:09.161Z,94799.22
2023-01-13T13:01:35.617Z,94795.06
2023-01-13T13:04:02.151Z,94816.06
2023-01-13T13:06:28.566Z,94819.25
2023-01-13T13:08:54.938Z,94822.09
2023-01-13T13:11:21.317Z,94814.72
2023-01-13T13:13:47.708Z,94810.59
2023-01-13T13:16:14.148Z,94798.97
2023-01-13T13:18:40.693Z,94800.03
2023-01-13T13:21:07.092Z,94786.31
2023-01-13T13:23:33.534Z,94788.94
2023-01-13T13:25:59.949Z,94789.03
2023-01-13T13:28:26.363Z,94797.34
2023-01-13T13:30:52.797Z,94799.16
2023-01-13T13:33:19.259Z,94808.16
2023-01-13T13:35:45.677Z,94805.53
2023-01-13T13:38:12.134Z,94806.50
2023-01-13T13:40:38.566Z,94803.75
2023-01-13T13:43:04.981Z,94802.09
2023-01-13T13:45:31.391Z,94806.38
2023-01-13T13:47:57.996Z,94815.59
2023-01-13T13:50:24.462Z,94810.22
2023-01-13T13:52:50.950Z,94817.78
2023-01-13T13:55:17.406Z,94831.16
2023-01-13T13:57:43.804Z,94823.75
2023-01-13T14:00:10.230Z,94825.41
2023-01-13T14:02:36.606Z,94831.50
2023-01-13T14:05:03.118Z,94829.25
2023-01-13T14:07:29.632Z,94827.75
2023-01-13T14:09:56.098Z,94830.38
2023-01-13T14:12:22.544Z,94830.22
2023-01-13T14:14:48.935Z,94833.00
2023-01-13T14:17:15.360Z,94836.16
2023-01-13T14:19:41.761Z,94838.19
2023-01-13T14:22:08.162Z,94834.22
2023-01-13T14:24:34.581Z,94845.56
2023-01-13T14:27:01.003Z,94861.41
2023-01-13T14:29:27.389Z,94860.72
2023-01-13T14:31:53.813Z,94853.00
2023-01-13T14:34:31.329Z,94843.06
2023-01-13T14:36:59.387Z,94859.13
2023-01-13T14:39:25.800Z,94853.03
2023-01-13T14:41:52.236Z,94861.63
2023-01-13T14:44:18.626Z,94877.16
2023-01-13T14:46:45.003Z,94871.91
2023-01-13T14:49:11.419Z,94880.25
2023-01-13T14:51:37.854Z,94874.91
2023-01-13T14:54:04.280Z,94883.09
2023-01-13T14:56:31.217Z,94906.22
2023-01-13T14:58:57.662Z,94895.41
2023-01-13T15:01:24.182Z,94906.13
2023-01-13T15:03:50.634Z,94912.22
2023-01-13T15:06:17.003Z,94918.28
2023-01-13T15:08:43.395Z,94937.97
2023-01-13T15:11:09.797Z,94898.81
2023-01-13T15:13:36.189Z,94898.53
2023-01-13T15:16:02.656Z,94893.75
2023-01-13T15:18:29.121Z,94889.81
2023-01-13T15:20:55.530Z,94886.69
2023-01-13T15:23:22.006Z,94875.63
2023-01-13T15:25:48.370Z,94883.28
2023-01-13T15:28:14.768Z,94904.16
2023-01-13T15:30:41.263Z,94895.06
2023-01-13T15:33:07.661Z,94907.94
2023-01-13T15:35:34.051Z,94923.81
2023-01-13T15:38:00.450Z,94928.09
2023-01-13T15:40:26.899Z,94927.03
2023-01-13T15:42:53.317Z,94933.25
2023-01-13T15:45:19.706Z,94937.66
2023-01-13T15:47:46.102Z,94944.97
2023-01-13T15:50:12.551Z,94947.31
2023-01-13T15:52:39.077Z,94939.59
2023-01-13T15:55:05.508Z,94942.22
2023-01-13T15:57:31.962Z,94941.94
2023-01-13T15:59:58.393Z,94938.78
2023-01-13T16:02:24.812Z,94946.94
2023-01-13T16:04:51.225Z,94947.75
2023-01-13T16:07:17.637Z,94955.78
2023-01-13T16:09:44.028Z,94958.22
2023-01-13T16:12:10.436Z,94958.41
2023-01-13T16:14:36.882Z,94967.34
2023-01-13T16:17:03.268Z,94976.19
2023-01-13T16:19:29.672Z,94976.59
2023-01-13T16:21:56.086Z,94983.50
2023-01-13T16:24:23.730Z,95001.75
2023-01-13T16:26:50.131Z,95008.09
2023-01-13T16:29:16.541Z,95004.66
2023-01-13T16:31:43.008Z,95002.72
2023-01-13T16:34:09.446Z,94998.44
2023-01-13T16:36:35.822Z,95016.94
2023-01-13T16:39:02.256Z,95024.13
2023-01-13T16:41:28.674Z,95041.66
2023-01-13T16:43:55.056Z,95044.41
2023-01-13T16:46:21.481Z,95036.00
2023-01-13T16:48:47.903Z,95042.06
2023-01-13T16:51:14.284Z,95046.19
2023-01-13T16:53:40.661Z,95052.97
2023-01-13T16:56:07.058Z,95044.13
2023-01-13T16:58:33.478Z,95043.56
2023-01-13T17:00:59.910Z,95036.53
2023-01-13T17:03:26.357Z,95051.44
2023-01-13T17:05:52.777Z,95051.84
2023-01-13T17:08:19.180Z,95047.31
2023-01-13T17:10:45.586Z,95042.31
2023-01-13T17:13:16.776Z,95050.19
2023-01-13T17:15:43.559Z,95053.66
2023-01-13T17:18:09.954Z,95046.91
2023-01-13T17:20:36.312Z,95031.41
2023-01-13T17:23:02.693Z,95032.13
2023-01-13T17:25:29.089Z,95035.56
2023-01-13T17:27:55.461Z,95034.06
2023-01-13T17:30:21.924Z,95039.88
2023-01-13T17:32:48.328Z,95034.63
2023-01-13T17:35:14.725Z,95046.06
2023-01-13T17:37:41.103Z,95047.31
2023-01-13T17:40:07.504Z,95059.06
2023-01-13T17:42:33.976Z,95073.13
2023-01-13T17:45:00.365Z,95083.91
2023-01-13T17:47:26.777Z,95077.97
2023-01-13T17:49:53.135Z,95075.34
2023-01-13T17:52:19.523Z,95082.69
2023-01-13T17:54:45.953Z,95084.47
2023-01-13T17:57:12.360Z,95106.28
2023-01-13T17:59:38.750Z,95119.53
2023-01-13T18:02:05.319Z,95120.78
2023-01-13T18:04:31.755Z,95131.28
2023-01-13T18:06:58.150Z,95138.31
2023-01-13T18:09:24.553Z,95140.22
2023-01-13T18:11:50.931Z,95160.13
2023-01-13T18:14:17.331Z,95159.72
2023-01-13T18:16:43.746Z,95180.59
2023-01-13T18:19:10.155Z,95195.28
2023-01-13T18:21:36.547Z,95204.94
2023-01-13T18:24:02.921Z,95199.09
2023-01-13T18:26:29.322Z,95178.25
2023-01-13T18:28:55.709Z,95170.19
2023-01-13T18:31:22.117Z,95175.50
2023-01-13T18:33:48.523Z,95190.22
2023-01-13T18:36:14.932Z,95199.72
2023-01-13T18:38:41.315Z,95204.38
2023-01-13T18:41:07.728Z,95191.66
2023-01-13T18:43:34.121Z,95198.97
2023-01-13T18:46:00.552Z,95198.38
2023-01-13T18:48:26.950Z,95193.53
2023-01-13T18:50:53.316Z,95193.69
2023-01-13T18:53:19.719Z,95186.19
2023-01-13T18:55:46.093Z,95188.13
2023-01-13T18:58:12.478Z,95198.34
2023-01-13T19:00:38.854Z,95202.75
2023-01-13T19:05:32.281Z,95196.94
2023-01-13T19:07:58.701Z,95202.44
2023-01-13T19:10:25.075Z,95200.56
2023-01-13T19:12:51.460Z,95205.97
2023-01-13T19:15:17.858Z,95204.63
2023-01-13T19:17:44.327Z,95206.56
2023-01-13T19:20:10.729Z,95204.38
2023-01-13T19:22:37.131Z,95209.09
2023-01-13T19:25:03.520Z,95217.41
2023-01-13T19:27:29.918Z,95222.97
2023-01-13T19:29:56.296Z,95219.50
2023-01-13T19:32:22.873Z,95214.38
2023-01-13T19:34:49.252Z,95225.41
2023-01-13T19:37:15.664Z,95225.28
2023-01-13T19:39:42.079Z,95230.84
2023-01-13T19:42:08.495Z,95232.22
2023-01-13T19:44:34.873Z,95238.31
2023-01-13T19:47:01.286Z,95242.31
2023-01-13T19:49:27.883Z,95244.00
2023-01-13T19:51:54.276Z,95252.56
2023-01-13T19:54:20.667Z,95253.97
2023-01-13T19:56:47.099Z,95260.16
2023-01-13T19:59:13.509Z,95254.94
2023-01-13T20:01:40.049Z,95257.84
2023-01-13T20:04:06.497Z,95256.31
2023-01-13T20:06:32.889Z,95258.94
2023-01-13T20:08:59.340Z,95250.81
2023-01-13T20:11:25.720Z,95249.44
2023-01-13T20:13:52.114Z,95264.22
2023-01-13T20:16:18.532Z,95263.66
2023-01-13T20:18:44.965Z,95249.97
2023-01-13T20:21:11.341Z,95256.31
2023-01-13T20:23:37.749Z,95260.72
2023-01-13T20:26:04.148Z,95263.63
2023-01-13T20:28:30.517Z,95272.84
2023-01-13T20:30:56.986Z,95268.53
2023-01-13T20:33:23.347Z,95283.69
2023-01-13T20:35:49.717Z,95290.44
2023-01-13T20:38:16.110Z,95283.53
2023-01-13T20:40:42.614Z,95275.88
2023-01-13T20:43:09.014Z,95292.72
2023-01-13T20:45:35.422Z,95289.97
2023-01-13T20:48:01.802Z,95287.22
2023-01-13T20:50:28.209Z,95285.31
2023-01-13T20:52:54.598Z,95283.13
2023-01-13T20:55:20.995Z,95295.16
2023-01-13T20:57:47.384Z,95291.31
2023-01-13T21:00:13.798Z,95292.69
2023-01-13T21:02:40.228Z,95290.78
2023-01-13T21:05:06.605Z,95280.00
2023-01-13T21:07:33.002Z,95295.63
2023-01-13T21:09:59.400Z,95291.22
2023-01-13T21:12:25.806Z,95286.94
2023-01-13T21:14:52.208Z,95296.34
2023-01-13T21:17:18.605Z,95286.69
2023-01-13T21:19:44.968Z,95279.06
2023-01-13T21:22:11.383Z,95278.22
2023-01-13T21:24:37.754Z,95277.53
2023-01-13T21:27:04.180Z,95266.59
2023-01-13T21:29:31.339Z,95273.63
2023-01-13T21:31:57.783Z,95273.91
2023-01-13T21:34:24.266Z,95263.41
2023-01-13T21:36:50.664Z,95276.25
2023-01-13T21:39:17.084Z,95266.88
2023-01-13T21:41:43.466Z,95268.97
2023-01-13T21:44:09.844Z,95274.63
2023-01-13T21:46:36.252Z,95265.75
2023-01-13T21:49:02.646Z,95276.00
2023-01-13T21:51:29.031Z,95263.84
2023-01-13T21:53:55.460Z,95267.41
2023-01-13T21:56:21.859Z,95279.16
2023-01-13T21:58:48.279Z,95280.22
2023-01-13T22:01:14.785Z,95297.91
2023-01-13T22:03:41.324Z,95306.03
2023-01-13T22:06:07.766Z,95306.41
2023-01-13T22:08:34.154Z,95313.34
2023-01-13T22:11:00.598Z,95313.22
2023-01-13T22:13:27.020Z,95311.41
2023-01-13T22:15:53.402Z,95305.19
2023-01-13T22:18:19.785Z,95307.97
2023-01-13T22:20:46.160Z,95309.63
2023-01-13T22:23:12.552Z,95308.78
2023-01-13T22:25:39.053Z,95294.84
2023-01-13T22:28:05.417Z,95311.41
2023-01-13T22:30:31.841Z,95308.91
2023-01-13T22:32:58.255Z,95303.78
2023-01-13T22:35:24.642Z,95304.88
2023-01-13T22:37:51.143Z,95310.81
2023-01-13T22:40:17.515Z,95309.53
2023-01-13T22:42:43.909Z,95307.06
2023-01-13T22:45:10.303Z,95302.50
2023-01-13T22:47:36.679Z,95297.75
2023-01-13T22:50:03.041Z,95304.09
2023-01-13T22:52:29.428Z,95298.41
2023-01-13T22:54:55.864Z,95299.38
2023-01-13T22:57:24.046Z,95295.91
2023-01-13T22:59:50.646Z,95288.63
2023-01-13T23:02:17.141Z,95287.66
2023-01-13T23:04:43.636Z,95285.88
2023-01-13T23:07:10.150Z,95292.50
2023-01-13T23:09:36.552Z,95290.47
2023-01-13T23:12:02.945Z,95299.75
2023-01-13T23:14:29.378Z,95281.09
2023-01-13T23:16:55.826Z,95277.31
2023-01-13T23:19:22.511Z,95281.22
2023-01-13T23:21:48.895Z,95279.97
2023-01-13T23:24:15.524Z,95278.06
2023-01-13T23:26:41.896Z,95266.16
2023-01-13T23:29:08.289Z,95269.78
2023-01-13T23:31:34.703Z,95265.06
2023-01-13T23:34:01.112Z,95263.81
2023-01-13T23:36:27.485Z,95266.69
2023-01-13T23:38:53.880Z,95266.44
2023-01-13T23:41:20.324Z,95266.69
2023-01-13T23:43:46.725Z,95276.34
2023-01-13T23:46:13.182Z,95264.06
2023-01-13T23:48:39.646Z,95263.94
2023-01-13T23:51:06.029Z,95255.53
2023-01-13T23:53:32.441Z,95258.56
2023-01-13T23:55:58.847Z,95260.91
2023-01-13T23:58:25.239Z,95259.53
